sensor_id;sensor_type;location;lat;lon;timestamp;temperature;humidity
67364;HTU21D;54250;45.572;38.086;2023-09-12T00:02:16;12.30;88.73
67364;HTU21D;54250;45.572;38.086;2023-09-12T00:04:42;12.33;88.62
67364;HTU21D;54250;45.572;38.086;2023-09-12T00:07:08;12.32;88.59
67364;HTU21D;54250;45.572;38.086;2023-09-12T00:09:33;12.36;88.65
67364;HTU21D;54250;45.572;38.086;2023-09-12T00:11:59;12.35;88.60
67364;HTU21D;54250;45.572;38.086;2023-09-12T00:14:25;12.31;88.62
67364;HTU21D;54250;45.572;38.086;2023-09-12T00:16:51;12.28;88.72
67364;HTU21D;54250;45.572;38.086;2023-09-12T00:19:21;12.23;88.85
67364;HTU21D;54250;45.572;38.086;2023-09-12T00:21:46;12.23;88.93
67364;HTU21D;54250;45.572;38.086;2023-09-12T00:24:14;12.25;88.84
67364;HTU21D;54250;45.572;38.086;2023-09-12T00:26:40;12.28;88.86
67364;HTU21D;54250;45.572;38.086;2023-09-12T00:29:06;12.30;88.89
67364;HTU21D;54250;45.572;38.086;2023-09-12T00:31:32;12.37;88.76
67364;HTU21D;54250;45.572;38.086;2023-09-12T00:33:58;12.38;88.83
67364;HTU21D;54250;45.572;38.086;2023-09-12T00:36:23;12.34;88.97
67364;HTU21D;54250;45.572;38.086;2023-09-12T00:38:49;12.30;89.08
67364;HTU21D;54250;45.572;38.086;2023-09-12T00:41:15;12.27;89.12
67364;HTU21D;54250;45.572;38.086;2023-09-12T00:43:41;12.25;89.15
67364;HTU21D;54250;45.572;38.086;2023-09-12T00:46:07;12.21;89.18
67364;HTU21D;54250;45.572;38.086;2023-09-12T00:48:33;12.18;89.26
67364;HTU21D;54250;45.572;38.086;2023-09-12T00:51:00;12.16;89.31
67364;HTU21D;54250;45.572;38.086;2023-09-12T00:53:26;12.12;89.35
67364;HTU21D;54250;45.572;38.086;2023-09-12T00:55:56;12.11;89.33
67364;HTU21D;54250;45.572;38.086;2023-09-12T00:58:24;12.10;89.32
67364;HTU21D;54250;45.572;38.086;2023-09-12T01:00:50;12.05;89.35
67364;HTU21D;54250;45.572;38.086;2023-09-12T01:03:16;12.03;89.41
67364;HTU21D;54250;45.572;38.086;2023-09-12T01:05:43;12.00;89.45
67364;HTU21D;54250;45.572;38.086;2023-09-12T01:08:10;11.99;89.50
67364;HTU21D;54250;45.572;38.086;2023-09-12T01:10:36;11.98;89.31
67364;HTU21D;54250;45.572;38.086;2023-09-12T01:13:03;11.94;89.26
67364;HTU21D;54250;45.572;38.086;2023-09-12T01:15:29;11.92;89.15
67364;HTU21D;54250;45.572;38.086;2023-09-12T01:17:56;11.93;88.99
67364;HTU21D;54250;45.572;38.086;2023-09-12T01:20:32;11.96;88.73
67364;HTU21D;54250;45.572;38.086;2023-09-12T01:28:34;11.97;88.52
67364;HTU21D;54250;45.572;38.086;2023-09-12T01:31:01;11.94;88.60
67364;HTU21D;54250;45.572;38.086;2023-09-12T01:33:29;11.91;88.61
67364;HTU21D;54250;45.572;38.086;2023-09-12T01:35:55;11.89;88.68
67364;HTU21D;54250;45.572;38.086;2023-09-12T01:38:21;11.88;88.74
67364;HTU21D;54250;45.572;38.086;2023-09-12T01:40:52;11.93;88.70
67364;HTU21D;54250;45.572;38.086;2023-09-12T01:43:21;11.97;88.65
67364;HTU21D;54250;45.572;38.086;2023-09-12T01:45:50;12.01;88.57
67364;HTU21D;54250;45.572;38.086;2023-09-12T01:48:20;12.11;88.46
67364;HTU21D;54250;45.572;38.086;2023-09-12T01:50:47;12.17;88.41
67364;HTU21D;54250;45.572;38.086;2023-09-12T01:53:14;12.15;88.55
67364;HTU21D;54250;45.572;38.086;2023-09-12T01:55:44;12.12;88.70
67364;HTU21D;54250;45.572;38.086;2023-09-12T01:58:12;12.04;88.89
67364;HTU21D;54250;45.572;38.086;2023-09-12T02:00:39;12.00;89.06
67364;HTU21D;54250;45.572;38.086;2023-09-12T02:03:05;12.01;89.06
67364;HTU21D;54250;45.572;38.086;2023-09-12T02:05:31;12.00;89.03
67364;HTU21D;54250;45.572;38.086;2023-09-12T02:07:57;12.08;88.89
67364;HTU21D;54250;45.572;38.086;2023-09-12T02:10:26;12.13;88.74
67364;HTU21D;54250;45.572;38.086;2023-09-12T02:12:52;12.08;88.89
67364;HTU21D;54250;45.572;38.086;2023-09-12T02:15:18;11.98;89.08
67364;HTU21D;54250;45.572;38.086;2023-09-12T02:17:44;11.83;89.29
67364;HTU21D;54250;45.572;38.086;2023-09-12T02:20:10;11.68;89.49
67364;HTU21D;54250;45.572;38.086;2023-09-12T02:22:37;11.53;89.63
67364;HTU21D;54250;45.572;38.086;2023-09-12T02:25:07;11.41;89.64
67364;HTU21D;54250;45.572;38.086;2023-09-12T02:27:34;11.31;89.58
67364;HTU21D;54250;45.572;38.086;2023-09-12T02:30:00;11.25;89.44
67364;HTU21D;54250;45.572;38.086;2023-09-12T02:32:26;11.16;89.38
67364;HTU21D;54250;45.572;38.086;2023-09-12T02:34:52;11.10;89.30
67364;HTU21D;54250;45.572;38.086;2023-09-12T02:37:19;11.05;89.22
67364;HTU21D;54250;45.572;38.086;2023-09-12T02:39:45;11.08;88.96
67364;HTU21D;54250;45.572;38.086;2023-09-12T02:42:11;11.04;88.80
67364;HTU21D;54250;45.572;38.086;2023-09-12T02:44:37;11.00;88.82
67364;HTU21D;54250;45.572;38.086;2023-09-12T02:47:03;11.03;88.64
67364;HTU21D;54250;45.572;38.086;2023-09-12T02:49:30;11.08;88.41
67364;HTU21D;54250;45.572;38.086;2023-09-12T02:51:56;11.12;88.15
67364;HTU21D;54250;45.572;38.086;2023-09-12T02:54:21;11.18;87.92
67364;HTU21D;54250;45.572;38.086;2023-09-12T02:56:47;11.22;87.73
67364;HTU21D;54250;45.572;38.086;2023-09-12T02:59:13;11.23;87.67
67364;HTU21D;54250;45.572;38.086;2023-09-12T03:01:39;11.14;87.76
67364;HTU21D;54250;45.572;38.086;2023-09-12T03:04:08;11.03;88.00
67364;HTU21D;54250;45.572;38.086;2023-09-12T03:06:34;10.94;88.19
67364;HTU21D;54250;45.572;38.086;2023-09-12T03:09:01;10.89;88.28
67364;HTU21D;54250;45.572;38.086;2023-09-12T03:11:28;10.87;88.18
67364;HTU21D;54250;45.572;38.086;2023-09-12T03:13:55;10.87;88.14
67364;HTU21D;54250;45.572;38.086;2023-09-12T03:16:21;10.87;88.11
67364;HTU21D;54250;45.572;38.086;2023-09-12T03:18:49;10.88;88.09
67364;HTU21D;54250;45.572;38.086;2023-09-12T03:21:16;10.88;88.03
67364;HTU21D;54250;45.572;38.086;2023-09-12T03:23:42;10.89;88.04
67364;HTU21D;54250;45.572;38.086;2023-09-12T03:26:08;10.90;87.96
67364;HTU21D;54250;45.572;38.086;2023-09-12T03:28:35;10.93;87.93
67364;HTU21D;54250;45.572;38.086;2023-09-12T03:31:11;10.98;87.81
67364;HTU21D;54250;45.572;38.086;2023-09-12T03:33:41;11.15;87.54
67364;HTU21D;54250;45.572;38.086;2023-09-12T03:36:07;11.26;87.30
67364;HTU21D;54250;45.572;38.086;2023-09-12T03:38:34;11.34;87.21
67364;HTU21D;54250;45.572;38.086;2023-09-12T03:41:01;11.49;87.07
67364;HTU21D;54250;45.572;38.086;2023-09-12T03:43:28;11.69;86.82
67364;HTU21D;54250;45.572;38.086;2023-09-12T03:45:54;11.94;86.37
67364;HTU21D;54250;45.572;38.086;2023-09-12T03:48:20;12.06;86.17
67364;HTU21D;54250;45.572;38.086;2023-09-12T03:50:47;12.26;86.03
67364;HTU21D;54250;45.572;38.086;2023-09-12T03:53:15;12.62;85.33
67364;HTU21D;54250;45.572;38.086;2023-09-12T03:55:42;12.82;85.09
67364;HTU21D;54250;45.572;38.086;2023-09-12T03:58:08;13.08;84.97
67364;HTU21D;54250;45.572;38.086;2023-09-12T04:00:34;13.60;84.27
67364;HTU21D;54250;45.572;38.086;2023-09-12T04:03:00;14.74;82.16
67364;HTU21D;54250;45.572;38.086;2023-09-12T04:05:26;16.10;79.53
67364;HTU21D;54250;45.572;38.086;2023-09-12T04:07:52;17.09;78.16
67364;HTU21D;54250;45.572;38.086;2023-09-12T04:10:20;18.04;77.21
67364;HTU21D;54250;45.572;38.086;2023-09-12T04:12:46;18.85;76.58
67364;HTU21D;54250;45.572;38.086;2023-09-12T04:15:12;19.67;75.91
67364;HTU21D;54250;45.572;38.086;2023-09-12T04:17:38;20.62;74.24
67364;HTU21D;54250;45.572;38.086;2023-09-12T04:20:05;20.63;74.88
67364;HTU21D;54250;45.572;38.086;2023-09-12T04:22:31;19.76;78.10
67364;HTU21D;54250;45.572;38.086;2023-09-12T04:24:57;18.99;80.54
67364;HTU21D;54250;45.572;38.086;2023-09-12T04:27:23;18.85;81.64
67364;HTU21D;54250;45.572;38.086;2023-09-12T04:29:49;20.16;78.15
67364;HTU21D;54250;45.572;38.086;2023-09-12T04:32:15;21.51;74.50
67364;HTU21D;54250;45.572;38.086;2023-09-12T04:34:44;22.56;72.09
67364;HTU21D;54250;45.572;38.086;2023-09-12T04:37:10;23.47;70.65
67364;HTU21D;54250;45.572;38.086;2023-09-12T04:39:37;24.74;68.17
67364;HTU21D;54250;45.572;38.086;2023-09-12T04:42:03;25.31;67.37
67364;HTU21D;54250;45.572;38.086;2023-09-12T04:44:35;26.15;66.21
67364;HTU21D;54250;45.572;38.086;2023-09-12T04:47:02;26.93;64.96
67364;HTU21D;54250;45.572;38.086;2023-09-12T04:49:28;27.59;63.93
67364;HTU21D;54250;45.572;38.086;2023-09-12T04:51:54;27.76;63.74
67364;HTU21D;54250;45.572;38.086;2023-09-12T04:54:20;27.56;64.38
67364;HTU21D;54250;45.572;38.086;2023-09-12T04:56:46;27.80;64.07
67364;HTU21D;54250;45.572;38.086;2023-09-12T04:59:13;27.59;64.13
67364;HTU21D;54250;45.572;38.086;2023-09-12T05:01:38;27.84;63.44
67364;HTU21D;54250;45.572;38.086;2023-09-12T05:04:05;27.84;63.02
67364;HTU21D;54250;45.572;38.086;2023-09-12T05:06:31;28.37;62.26
67364;HTU21D;54250;45.572;38.086;2023-09-12T05:08:57;29.23;60.19
67364;HTU21D;54250;45.572;38.086;2023-09-12T05:11:23;29.76;59.16
67364;HTU21D;54250;45.572;38.086;2023-09-12T05:13:52;31.15;56.61
67364;HTU21D;54250;45.572;38.086;2023-09-12T05:16:18;32.02;55.12
67364;HTU21D;54250;45.572;38.086;2023-09-12T05:18:45;32.07;54.94
67364;HTU21D;54250;45.572;38.086;2023-09-12T05:21:11;32.17;54.62
67364;HTU21D;54250;45.572;38.086;2023-09-12T05:23:36;31.44;55.58
67364;HTU21D;54250;45.572;38.086;2023-09-12T05:26:02;31.12;56.05
67364;HTU21D;54250;45.572;38.086;2023-09-12T05:28:29;31.35;54.99
67364;HTU21D;54250;45.572;38.086;2023-09-12T05:30:55;31.52;54.04
67364;HTU21D;54250;45.572;38.086;2023-09-12T05:33:21;31.23;54.17
67364;HTU21D;54250;45.572;38.086;2023-09-12T05:35:47;31.69;53.51
67364;HTU21D;54250;45.572;38.086;2023-09-12T05:38:13;32.17;51.75
67364;HTU21D;54250;45.572;38.086;2023-09-12T05:40:39;31.68;52.49
67364;HTU21D;54250;45.572;38.086;2023-09-12T05:43:05;31.57;52.59
67364;HTU21D;54250;45.572;38.086;2023-09-12T05:45:31;31.76;51.91
67364;HTU21D;54250;45.572;38.086;2023-09-12T05:47:59;32.38;50.65
67364;HTU21D;54250;45.572;38.086;2023-09-12T05:50:26;33.38;48.86
67364;HTU21D;54250;45.572;38.086;2023-09-12T05:52:52;33.60;48.31
67364;HTU21D;54250;45.572;38.086;2023-09-12T05:55:18;34.11;47.54
67364;HTU21D;54250;45.572;38.086;2023-09-12T05:57:45;34.55;46.72
67364;HTU21D;54250;45.572;38.086;2023-09-12T06:00:11;35.60;44.91
67364;HTU21D;54250;45.572;38.086;2023-09-12T06:02:41;37.08;42.82
67364;HTU21D;54250;45.572;38.086;2023-09-12T06:05:08;37.61;41.91
67364;HTU21D;54250;45.572;38.086;2023-09-12T06:07:34;37.48;42.23
67364;HTU21D;54250;45.572;38.086;2023-09-12T06:10:01;37.22;42.31
67364;HTU21D;54250;45.572;38.086;2023-09-12T06:12:26;37.21;42.26
67364;HTU21D;54250;45.572;38.086;2023-09-12T06:14:52;37.60;41.25
67364;HTU21D;54250;45.572;38.086;2023-09-12T06:17:21;36.88;41.98
67364;HTU21D;54250;45.572;38.086;2023-09-12T06:19:48;36.45;42.13
67364;HTU21D;54250;45.572;38.086;2023-09-12T06:22:15;36.57;41.70
67364;HTU21D;54250;45.572;38.086;2023-09-12T06:24:43;37.03;40.14
67364;HTU21D;54250;45.572;38.086;2023-09-12T06:27:09;36.49;40.70
67364;HTU21D;54250;45.572;38.086;2023-09-12T06:29:38;35.83;41.37
67364;HTU21D;54250;45.572;38.086;2023-09-12T06:32:04;36.01;40.48
67364;HTU21D;54250;45.572;38.086;2023-09-12T06:34:30;36.33;39.85
67364;HTU21D;54250;45.572;38.086;2023-09-12T06:36:56;36.59;39.23
67364;HTU21D;54250;45.572;38.086;2023-09-12T06:39:21;36.90;38.87
67364;HTU21D;54250;45.572;38.086;2023-09-12T06:41:49;37.19;37.75
67364;HTU21D;54250;45.572;38.086;2023-09-12T06:44:15;37.31;37.64
67364;HTU21D;54250;45.572;38.086;2023-09-12T06:46:41;37.20;37.51
67364;HTU21D;54250;45.572;38.086;2023-09-12T06:49:07;37.37;36.80
67364;HTU21D;54250;45.572;38.086;2023-09-12T06:51:33;37.06;37.22
67364;HTU21D;54250;45.572;38.086;2023-09-12T06:54:00;37.07;37.19
67364;HTU21D;54250;45.572;38.086;2023-09-12T06:56:26;38.14;35.81
67364;HTU21D;54250;45.572;38.086;2023-09-12T06:58:52;39.66;34.03
67364;HTU21D;54250;45.572;38.086;2023-09-12T07:01:20;40.45;32.88
67364;HTU21D;54250;45.572;38.086;2023-09-12T07:03:46;41.10;32.19
67364;HTU21D;54250;45.572;38.086;2023-09-12T07:06:12;42.13;31.31
67364;HTU21D;54250;45.572;38.086;2023-09-12T07:08:39;42.32;31.06
67364;HTU21D;54250;45.572;38.086;2023-09-12T07:11:05;41.84;31.51
67364;HTU21D;54250;45.572;38.086;2023-09-12T07:13:32;41.43;31.92
67364;HTU21D;54250;45.572;38.086;2023-09-12T07:15:59;41.28;31.96
67364;HTU21D;54250;45.572;38.086;2023-09-12T07:18:25;41.44;31.51
67364;HTU21D;54250;45.572;38.086;2023-09-12T07:21:01;42.10;30.77
67364;HTU21D;54250;45.572;38.086;2023-09-12T07:23:27;42.16;30.54
67364;HTU21D;54250;45.572;38.086;2023-09-12T07:25:54;43.07;29.45
67364;HTU21D;54250;45.572;38.086;2023-09-12T07:28:21;44.16;28.39
67364;HTU21D;54250;45.572;38.086;2023-09-12T07:30:47;45.00;27.55
67364;HTU21D;54250;45.572;38.086;2023-09-12T07:33:13;45.44;27.13
67364;HTU21D;54250;45.572;38.086;2023-09-12T07:35:39;45.79;26.88
67364;HTU21D;54250;45.572;38.086;2023-09-12T07:38:05;46.13;26.44
67364;HTU21D;54250;45.572;38.086;2023-09-12T07:40:31;45.41;27.15
67364;HTU21D;54250;45.572;38.086;2023-09-12T07:42:57;46.03;26.61
67364;HTU21D;54250;45.572;38.086;2023-09-12T07:45:23;46.75;25.83
67364;HTU21D;54250;45.572;38.086;2023-09-12T07:47:48;47.14;25.44
67364;HTU21D;54250;45.572;38.086;2023-09-12T07:50:15;47.38;25.23
67364;HTU21D;54250;45.572;38.086;2023-09-12T07:52:41;47.56;25.14
67364;HTU21D;54250;45.572;38.086;2023-09-12T07:55:07;47.63;24.98
67364;HTU21D;54250;45.572;38.086;2023-09-12T07:57:34;47.86;24.73
67364;HTU21D;54250;45.572;38.086;2023-09-12T08:00:04;47.91;24.43
67364;HTU21D;54250;45.572;38.086;2023-09-12T08:02:38;47.82;24.72
67364;HTU21D;54250;45.572;38.086;2023-09-12T08:05:05;47.26;25.21
67364;HTU21D;54250;45.572;38.086;2023-09-12T08:07:31;46.27;25.87
67364;HTU21D;54250;45.572;38.086;2023-09-12T08:09:58;46.10;25.90
67364;HTU21D;54250;45.572;38.086;2023-09-12T08:12:26;45.42;26.07
67364;HTU21D;54250;45.572;38.086;2023-09-12T08:14:55;43.09;28.15
67364;HTU21D;54250;45.572;38.086;2023-09-12T08:17:22;40.54;30.56
67364;HTU21D;54250;45.572;38.086;2023-09-12T08:19:48;38.41;32.62
67364;HTU21D;54250;45.572;38.086;2023-09-12T08:22:14;39.28;31.26
67364;HTU21D;54250;45.572;38.086;2023-09-12T08:24:40;38.08;32.05
67364;HTU21D;54250;45.572;38.086;2023-09-12T08:27:07;37.40;32.76
67364;HTU21D;54250;45.572;38.086;2023-09-12T08:29:33;39.64;30.12
67364;HTU21D;54250;45.572;38.086;2023-09-12T08:32:00;39.59;29.68
67364;HTU21D;54250;45.572;38.086;2023-09-12T08:34:26;37.79;31.54
67364;HTU21D;54250;45.572;38.086;2023-09-12T08:36:52;35.93;33.44
67364;HTU21D;54250;45.572;38.086;2023-09-12T08:39:25;34.29;35.02
67364;HTU21D;54250;45.572;38.086;2023-09-12T08:41:51;32.96;36.61
67364;HTU21D;54250;45.572;38.086;2023-09-12T08:44:19;32.32;37.31
67364;HTU21D;54250;45.572;38.086;2023-09-12T08:46:46;31.83;37.73
67364;HTU21D;54250;45.572;38.086;2023-09-12T08:49:12;31.45;38.11
67364;HTU21D;54250;45.572;38.086;2023-09-12T08:51:39;31.04;38.51
67364;HTU21D;54250;45.572;38.086;2023-09-12T08:54:05;30.42;39.07
67364;HTU21D;54250;45.572;38.086;2023-09-12T08:56:32;29.60;40.23
67364;HTU21D;54250;45.572;38.086;2023-09-12T08:59:01;28.76;41.42
67364;HTU21D;54250;45.572;38.086;2023-09-12T09:01:30;28.24;42.21
67364;HTU21D;54250;45.572;38.086;2023-09-12T09:03:56;27.82;42.78
67364;HTU21D;54250;45.572;38.086;2023-09-12T09:06:23;27.44;43.23
67364;HTU21D;54250;45.572;38.086;2023-09-12T09:08:52;27.97;42.89
67364;HTU21D;54250;45.572;38.086;2023-09-12T09:11:18;30.04;40.12
67364;HTU21D;54250;45.572;38.086;2023-09-12T09:13:44;32.86;36.47
67364;HTU21D;54250;45.572;38.086;2023-09-12T09:16:16;33.50;35.76
67364;HTU21D;54250;45.572;38.086;2023-09-12T09:18:56;33.04;36.69
67364;HTU21D;54250;45.572;38.086;2023-09-12T09:21:26;33.40;36.51
67364;HTU21D;54250;45.572;38.086;2023-09-12T09:23:53;35.40;34.21
67364;HTU21D;54250;45.572;38.086;2023-09-12T09:26:20;36.27;33.38
67364;HTU21D;54250;45.572;38.086;2023-09-12T09:29:06;37.49;32.44
67364;HTU21D;54250;45.572;38.086;2023-09-12T09:31:33;38.24;31.78
67364;HTU21D;54250;45.572;38.086;2023-09-12T09:34:00;38.68;31.17
67364;HTU21D;54250;45.572;38.086;2023-09-12T09:36:27;39.36;30.71
67364;HTU21D;54250;45.572;38.086;2023-09-12T09:39:00;38.41;31.74
67364;HTU21D;54250;45.572;38.086;2023-09-12T09:41:31;35.60;35.13
67364;HTU21D;54250;45.572;38.086;2023-09-12T09:43:58;33.58;37.55
67364;HTU21D;54250;45.572;38.086;2023-09-12T09:46:25;31.93;39.41
67364;HTU21D;54250;45.572;38.086;2023-09-12T09:48:51;30.91;40.40
67364;HTU21D;54250;45.572;38.086;2023-09-12T09:51:18;30.24;40.96
67364;HTU21D;54250;45.572;38.086;2023-09-12T09:53:44;29.61;41.43
67364;HTU21D;54250;45.572;38.086;2023-09-12T09:56:14;29.01;41.68
67364;HTU21D;54250;45.572;38.086;2023-09-12T09:58:54;29.33;41.15
67364;HTU21D;54250;45.572;38.086;2023-09-12T10:01:24;30.66;39.10
67364;HTU21D;54250;45.572;38.086;2023-09-12T10:03:53;31.56;37.79
67364;HTU21D;54250;45.572;38.086;2023-09-12T10:06:23;31.15;38.31
67364;HTU21D;54250;45.572;38.086;2023-09-12T10:08:51;30.49;39.74
67364;HTU21D;54250;45.572;38.086;2023-09-12T10:11:19;30.32;40.49
67364;HTU21D;54250;45.572;38.086;2023-09-12T10:13:49;30.21;40.75
67364;HTU21D;54250;45.572;38.086;2023-09-12T10:16:22;30.03;41.08
67364;HTU21D;54250;45.572;38.086;2023-09-12T10:21:28;29.88;41.63
67364;HTU21D;54250;45.572;38.086;2023-09-12T10:23:56;29.41;42.05
67364;HTU21D;54250;45.572;38.086;2023-09-12T10:26:23;29.11;42.28
67364;HTU21D;54250;45.572;38.086;2023-09-12T10:28:51;28.68;42.73
67364;HTU21D;54250;45.572;38.086;2023-09-12T10:31:17;28.35;42.99
67364;HTU21D;54250;45.572;38.086;2023-09-12T10:33:45;28.31;42.97
67364;HTU21D;54250;45.572;38.086;2023-09-12T10:36:12;28.33;42.77
67364;HTU21D;54250;45.572;38.086;2023-09-12T10:38:44;28.26;42.77
67364;HTU21D;54250;45.572;38.086;2023-09-12T10:41:14;28.17;42.80
67364;HTU21D;54250;45.572;38.086;2023-09-12T10:43:41;27.94;42.90
67364;HTU21D;54250;45.572;38.086;2023-09-12T10:46:08;27.76;43.10
67364;HTU21D;54250;45.572;38.086;2023-09-12T10:48:36;27.54;43.30
67364;HTU21D;54250;45.572;38.086;2023-09-12T10:51:02;27.21;43.71
67364;HTU21D;54250;45.572;38.086;2023-09-12T10:53:32;26.86;44.25
67364;HTU21D;54250;45.572;38.086;2023-09-12T10:56:18;26.85;44.46
67364;HTU21D;54250;45.572;38.086;2023-09-12T11:01:30;27.52;44.05
67364;HTU21D;54250;45.572;38.086;2023-09-12T11:03:57;27.80;43.94
67364;HTU21D;54250;45.572;38.086;2023-09-12T11:06:29;27.86;44.07
67364;HTU21D;54250;45.572;38.086;2023-09-12T11:09:22;27.73;44.28
67364;HTU21D;54250;45.572;38.086;2023-09-12T11:11:54;27.39;44.67
67364;HTU21D;54250;45.572;38.086;2023-09-12T11:14:20;27.05;44.98
67364;HTU21D;54250;45.572;38.086;2023-09-12T11:19:46;26.47;45.62
67364;HTU21D;54250;45.572;38.086;2023-09-12T11:22:29;26.26;45.72
67364;HTU21D;54250;45.572;38.086;2023-09-12T11:25:02;26.45;45.54
67364;HTU21D;54250;45.572;38.086;2023-09-12T11:28:03;27.10;44.79
67364;HTU21D;54250;45.572;38.086;2023-09-12T11:30:30;27.53;44.34
67364;HTU21D;54250;45.572;38.086;2023-09-12T11:33:04;27.81;44.03
67364;HTU21D;54250;45.572;38.086;2023-09-12T11:35:36;27.99;44.02
67364;HTU21D;54250;45.572;38.086;2023-09-12T11:38:02;28.14;43.71
67364;HTU21D;54250;45.572;38.086;2023-09-12T11:43:01;28.47;43.50
67364;HTU21D;54250;45.572;38.086;2023-09-12T11:45:27;28.61;43.33
67364;HTU21D;54250;45.572;38.086;2023-09-12T11:47:56;28.24;43.77
67364;HTU21D;54250;45.572;38.086;2023-09-12T11:50:35;27.79;44.36
67364;HTU21D;54250;45.572;38.086;2023-09-12T11:53:09;27.36;44.88
67364;HTU21D;54250;45.572;38.086;2023-09-12T11:55:56;26.89;45.54
67364;HTU21D;54250;45.572;38.086;2023-09-12T11:58:22;26.53;45.92
67364;HTU21D;54250;45.572;38.086;2023-09-12T12:00:50;26.24;46.25
67364;HTU21D;54250;45.572;38.086;2023-09-12T12:03:18;25.92;46.62
67364;HTU21D;54250;45.572;38.086;2023-09-12T12:05:45;25.65;46.88
67364;HTU21D;54250;45.572;38.086;2023-09-12T12:08:12;25.40;47.15
67364;HTU21D;54250;45.572;38.086;2023-09-12T12:10:38;25.15;47.46
67364;HTU21D;54250;45.572;38.086;2023-09-12T12:13:32;24.84;47.79
67364;HTU21D;54250;45.572;38.086;2023-09-12T12:15:58;24.59;48.02
67364;HTU21D;54250;45.572;38.086;2023-09-12T12:18:24;24.46;48.22
67364;HTU21D;54250;45.572;38.086;2023-09-12T12:20:51;24.40;48.23
67364;HTU21D;54250;45.572;38.086;2023-09-12T12:23:17;24.35;48.24
67364;HTU21D;54250;45.572;38.086;2023-09-12T12:25:43;24.33;48.16
67364;HTU21D;54250;45.572;38.086;2023-09-12T12:28:09;24.23;48.02
67364;HTU21D;54250;45.572;38.086;2023-09-12T12:30:35;24.08;48.12
67364;HTU21D;54250;45.572;38.086;2023-09-12T12:33:07;23.89;48.38
67364;HTU21D;54250;45.572;38.086;2023-09-12T12:35:33;23.70;48.64
67364;HTU21D;54250;45.572;38.086;2023-09-12T12:38:00;23.57;48.82
67364;HTU21D;54250;45.572;38.086;2023-09-12T12:40:28;23.50;48.83
67364;HTU21D;54250;45.572;38.086;2023-09-12T12:42:53;23.39;48.92
67364;HTU21D;54250;45.572;38.086;2023-09-12T12:45:21;23.32;49.04
67364;HTU21D;54250;45.572;38.086;2023-09-12T12:47:55;23.25;49.14
67364;HTU21D;54250;45.572;38.086;2023-09-12T12:50:21;23.14;49.26
67364;HTU21D;54250;45.572;38.086;2023-09-12T12:52:48;22.99;49.57
67364;HTU21D;54250;45.572;38.086;2023-09-12T12:55:17;22.82;49.78
67364;HTU21D;54250;45.572;38.086;2023-09-12T12:57:45;22.67;49.98
67364;HTU21D;54250;45.572;38.086;2023-09-12T13:00:15;22.56;50.17
67364;HTU21D;54250;45.572;38.086;2023-09-12T13:02:42;22.50;50.14
67364;HTU21D;54250;45.572;38.086;2023-09-12T13:05:29;22.54;49.97
67364;HTU21D;54250;45.572;38.086;2023-09-12T13:07:56;22.71;49.79
67364;HTU21D;54250;45.572;38.086;2023-09-12T13:10:23;22.99;49.51
67364;HTU21D;54250;45.572;38.086;2023-09-12T13:12:49;23.28;49.17
67364;HTU21D;54250;45.572;38.086;2023-09-12T13:15:16;23.52;49.01
67364;HTU21D;54250;45.572;38.086;2023-09-12T13:17:43;23.69;48.89
67364;HTU21D;54250;45.572;38.086;2023-09-12T13:20:09;23.76;48.86
67364;HTU21D;54250;45.572;38.086;2023-09-12T13:22:36;23.79;48.95
67364;HTU21D;54250;45.572;38.086;2023-09-12T13:25:02;23.79;48.97
67364;HTU21D;54250;45.572;38.086;2023-09-12T13:27:28;23.77;49.11
67364;HTU21D;54250;45.572;38.086;2023-09-12T13:29:55;23.79;49.18
67364;HTU21D;54250;45.572;38.086;2023-09-12T13:32:21;23.80;49.23
67364;HTU21D;54250;45.572;38.086;2023-09-12T13:34:47;23.79;49.36
67364;HTU21D;54250;45.572;38.086;2023-09-12T13:37:16;23.82;49.36
67364;HTU21D;54250;45.572;38.086;2023-09-12T13:39:42;23.81;49.40
67364;HTU21D;54250;45.572;38.086;2023-09-12T13:42:17;23.79;49.44
67364;HTU21D;54250;45.572;38.086;2023-09-12T13:44:50;23.81;49.41
67364;HTU21D;54250;45.572;38.086;2023-09-12T13:47:16;23.79;49.42
67364;HTU21D;54250;45.572;38.086;2023-09-12T13:49:48;23.73;49.51
67364;HTU21D;54250;45.572;38.086;2023-09-12T13:52:14;23.64;49.60
67364;HTU21D;54250;45.572;38.086;2023-09-12T13:54:42;23.56;49.67
67364;HTU21D;54250;45.572;38.086;2023-09-12T13:57:08;23.46;49.72
67364;HTU21D;54250;45.572;38.086;2023-09-12T13:59:34;23.38;49.79
67364;HTU21D;54250;45.572;38.086;2023-09-12T14:02:00;23.30;49.94
67364;HTU21D;54250;45.572;38.086;2023-09-12T14:04:26;23.25;49.93
67364;HTU21D;54250;45.572;38.086;2023-09-12T14:06:52;23.17;50.07
67364;HTU21D;54250;45.572;38.086;2023-09-12T14:09:18;23.15;50.17
67364;HTU21D;54250;45.572;38.086;2023-09-12T14:11:44;23.13;50.22
67364;HTU21D;54250;45.572;38.086;2023-09-12T14:14:12;23.10;50.34
67364;HTU21D;54250;45.572;38.086;2023-09-12T14:16:38;23.07;50.48
67364;HTU21D;54250;45.572;38.086;2023-09-12T14:19:04;23.02;50.59
67364;HTU21D;54250;45.572;38.086;2023-09-12T14:21:30;22.97;50.71
67364;HTU21D;54250;45.572;38.086;2023-09-12T14:23:57;22.93;50.80
67364;HTU21D;54250;45.572;38.086;2023-09-12T14:26:23;22.85;50.95
67364;HTU21D;54250;45.572;38.086;2023-09-12T14:28:49;22.80;51.07
67364;HTU21D;54250;45.572;38.086;2023-09-12T14:31:15;22.70;51.20
67364;HTU21D;54250;45.572;38.086;2023-09-12T14:33:41;22.57;51.41
67364;HTU21D;54250;45.572;38.086;2023-09-12T14:36:08;22.49;51.64
67364;HTU21D;54250;45.572;38.086;2023-09-12T14:38:35;22.39;51.83
67364;HTU21D;54250;45.572;38.086;2023-09-12T14:41:01;22.28;51.99
67364;HTU21D;54250;45.572;38.086;2023-09-12T14:43:28;22.19;52.19
67364;HTU21D;54250;45.572;38.086;2023-09-12T14:45:54;22.06;52.45
67364;HTU21D;54250;45.572;38.086;2023-09-12T14:48:21;21.93;52.65
67364;HTU21D;54250;45.572;38.086;2023-09-12T14:50:46;21.81;52.85
67364;HTU21D;54250;45.572;38.086;2023-09-12T14:53:15;21.68;53.10
67364;HTU21D;54250;45.572;38.086;2023-09-12T14:55:42;21.57;53.31
67364;HTU21D;54250;45.572;38.086;2023-09-12T14:58:08;21.43;53.51
67364;HTU21D;54250;45.572;38.086;2023-09-12T15:00:34;21.28;53.78
67364;HTU21D;54250;45.572;38.086;2023-09-12T15:03:01;21.13;54.02
67364;HTU21D;54250;45.572;38.086;2023-09-12T15:05:27;20.98;54.23
67364;HTU21D;54250;45.572;38.086;2023-09-12T15:07:53;20.84;54.49
67364;HTU21D;54250;45.572;38.086;2023-09-12T15:10:19;20.69;54.74
67364;HTU21D;54250;45.572;38.086;2023-09-12T15:12:45;20.53;55.02
67364;HTU21D;54250;45.572;38.086;2023-09-12T15:15:11;20.37;55.35
67364;HTU21D;54250;45.572;38.086;2023-09-12T15:17:37;20.20;55.61
67364;HTU21D;54250;45.572;38.086;2023-09-12T15:20:04;20.03;55.96
67364;HTU21D;54250;45.572;38.086;2023-09-12T15:22:33;19.87;56.21